Time;durP1;ratioP1;P1;durP2;ratioP2;P2;SDS_P1;SDS_P2;PMS_P1;PMS_P2;Temp;Humidity;BMP_temperature;BMP_pressure;BME280_temperature;BME280_humidity;BME280_pressure;Samples;Min_cycle;Max_cycle;Signal;HPM_P1;HPM_P2
2022/09/18 00:00:01;;;;;;;3.92;1.38;;;;;;;19.81;58.98;93530.72;5110604;28;20409;-74
2022/09/18 00:02:26;;;;;;;4.85;1.20;;;;;;;19.71;59.29;93532.22;5093532;28;20164;-75
2022/09/18 00:04:52;;;;;;;4.18;1.45;;;;;;;19.59;60.77;93516.28;5093364;28;20505;-75
2022/09/18 00:07:18;;;;;;;3.85;1.40;;;;;;;19.28;59.75;93477.56;5093373;28;20042;-74
2022/09/18 00:09:43;;;;;;;2.95;1.30;;;;;;;19.53;60.34;93515.31;5093444;28;20489;-74
2022/09/18 00:12:09;;;;;;;5.43;1.60;;;;;;;19.51;58.30;93521.78;5093538;28;20035;-74
2022/09/18 00:14:34;;;;;;;5.60;1.52;;;;;;;19.41;59.25;93522.25;5110271;28;20033;-74
2022/09/18 00:17:01;;;;;;;3.80;1.40;;;;;;;19.32;61.10;93561.19;5093266;28;20463;-75
2022/09/18 00:19:27;;;;;;;3.28;1.55;;;;;;;19.35;61.00;93568.66;5093633;27;20023;-74
2022/09/18 00:21:52;;;;;;;4.63;1.83;;;;;;;18.98;59.61;93536.84;5093180;28;20413;-74
2022/09/18 00:24:18;;;;;;;3.53;1.80;;;;;;;18.95;59.46;93560.16;5110202;28;20042;-74
2022/09/18 00:26:44;;;;;;;4.13;1.73;;;;;;;19.04;60.36;93605.47;5110260;28;20134;-74
2022/09/18 00:29:10;;;;;;;5.72;1.85;;;;;;;19.00;60.28;93631.38;5093257;28;20067;-74
2022/09/18 00:31:36;;;;;;;3.70;1.73;;;;;;;18.96;60.77;93646.75;5093269;28;20097;-75
2022/09/18 00:34:04;;;;;;;6.38;1.55;;;;;;;18.80;61.09;93659.56;5093109;28;20028;-74
2022/09/18 00:36:30;;;;;;;2.63;1.52;;;;;;;18.21;60.11;93632.25;5093345;28;20040;-74
2022/09/18 00:38:56;;;;;;;4.03;1.50;;;;;;;18.17;60.39;93684.44;5093077;28;20046;-74
2022/09/18 00:41:24;;;;;;;3.30;1.50;;;;;;;18.06;60.11;93687.66;5093213;28;20500;-74
2022/09/18 00:43:51;;;;;;;3.55;1.30;;;;;;;17.80;60.03;93683.13;5110209;28;20036;-74
2022/09/18 00:46:21;;;;;;;2.33;1.30;;;;;;;17.59;60.35;93684.88;5092962;28;20035;-74
2022/09/18 00:49:10;;;;;;;2.63;1.20;;;;;;;17.09;60.84;93686.88;5093108;28;20031;-74
2022/09/18 00:51:35;;;;;;;2.05;1.10;;;;;;;16.70;61.55;93708.41;5106847;28;20032;-74
2022/09/18 00:54:25;;;;;;;2.67;1.10;;;;;;;16.61;61.79;93707.75;5093183;28;20035;-74
2022/09/18 00:56:52;;;;;;;2.43;0.80;;;;;;;16.22;60.76;93726.56;5111479;28;20073;-74
2022/09/18 00:59:20;;;;;;;1.17;0.70;;;;;;;16.01;60.92;93735.22;5093033;28;20027;-74
2022/09/18 01:01:46;;;;;;;3.30;0.70;;;;;;;15.73;60.35;93751.66;5093256;28;20156;-74
2022/09/18 01:04:11;;;;;;;1.20;0.55;;;;;;;15.28;60.77;93736.97;5092943;28;20489;-74
2022/09/18 01:06:56;;;;;;;2.22;0.70;;;;;;;15.09;61.97;93739.13;5095906;27;20044;-74
2022/09/18 01:09:47;;;;;;;1.75;0.60;;;;;;;15.05;61.32;93758.81;5097806;28;20076;-74
2022/09/18 01:12:34;;;;;;;0.95;0.50;;;;;;;14.84;60.32;93784.84;5115455;28;20031;-74
2022/09/18 01:15:14;;;;;;;3.00;0.50;;;;;;;14.38;60.50;93793.53;5130821;27;20520;-74
2022/09/18 01:17:55;;;;;;;0.80;0.50;;;;;;;14.21;61.02;93789.41;5113875;27;20055;-74
2022/09/18 01:20:39;;;;;;;3.38;0.57;;;;;;;14.13;60.45;93805.94;5096976;28;20089;-74
2022/09/18 01:39:27;;;;;;;3.42;0.40;;;;;;;13.46;61.40;93845.56;5108416;27;20350;-74
2022/09/18 01:41:53;;;;;;;3.55;0.40;;;;;;;13.36;62.33;93858.78;5090637;28;20131;-74
2022/09/18 01:44:21;;;;;;;0.35;0.30;;;;;;;13.26;61.79;93860.78;5090668;28;20041;-74
2022/09/18 01:46:46;;;;;;;0.52;0.30;;;;;;;12.89;62.63;93882.13;5107118;28;20028;-74
2022/09/18 01:49:13;;;;;;;0.43;0.30;;;;;;;12.66;62.87;93877.56;5090195;28;20036;-74
2022/09/18 01:51:45;;;;;;;1.50;0.40;;;;;;;12.64;63.58;93897.75;5090144;28;20028;-74
2022/09/18 01:54:20;;;;;;;1.48;0.30;;;;;;;12.52;63.47;93897.25;5090513;28;20040;-74
2022/09/18 01:56:58;;;;;;;0.40;0.30;;;;;;;12.40;63.49;93903.75;5091192;28;20107;-74
2022/09/18 01:59:26;;;;;;;0.40;0.30;;;;;;;12.44;63.65;93925.09;5091625;28;20290;-74
2022/09/18 02:01:52;;;;;;;0.65;0.40;;;;;;;12.30;63.70;93919.50;5106920;28;20024;-74
2022/09/18 02:04:20;;;;;;;0.30;0.30;;;;;;;12.38;64.33;93944.78;5073073;28;20557;-74
2022/09/18 02:06:58;;;;;;;0.65;0.30;;;;;;;12.26;63.54;93948.66;5073085;28;20060;-74
2022/09/18 02:09:23;;;;;;;0.45;0.40;;;;;;;12.07;64.62;93957.53;5089827;28;20035;-74
2022/09/18 02:11:50;;;;;;;1.75;0.40;;;;;;;11.85;64.91;93962.31;5106708;28;20020;-74
2022/09/18 02:14:21;;;;;;;0.30;0.30;;;;;;;11.70;65.73;93966.44;5106745;28;20137;-74
2022/09/18 02:16:49;;;;;;;0.52;0.35;;;;;;;11.55;66.16;93975.78;5107875;28;20494;-74
2022/09/18 02:19:18;;;;;;;0.30;0.30;;;;;;;11.42;67.53;94002.16;5089954;28;20039;-74
2022/09/18 02:21:44;;;;;;;1.20;0.32;;;;;;;11.16;66.96;93992.56;5072658;28;20024;-74
2022/09/18 02:24:09;;;;;;;0.50;0.40;;;;;;;11.34;67.00;94017.75;5089754;28;20489;-74
2022/09/18 02:26:36;;;;;;;0.90;0.40;;;;;;;11.36;66.32;94002.78;5089501;28;20042;-74
2022/09/18 02:29:02;;;;;;;0.50;0.40;;;;;;;11.37;66.22;94020.03;5072659;28;20036;-74
2022/09/18 02:31:27;;;;;;;0.60;0.40;;;;;;;11.28;65.35;94046.91;5072439;28;20462;-74
2022/09/18 02:33:53;;;;;;;1.25;0.40;;;;;;;11.09;66.54;94025.34;5089293;28;20063;-74
2022/09/18 02:36:37;;;;;;;0.50;0.40;;;;;;;11.21;66.95;94049.31;5106301;28;20021;-74
2022/09/18 02:39:15;;;;;;;0.60;0.50;;;;;;;11.16;65.74;94049.75;5100023;28;20059;-74
2022/09/18 02:42:11;;;;;;;0.90;0.40;;;;;;;10.96;66.38;94063.84;5092461;28;20043;-74
2022/09/18 02:44:51;;;;;;;0.98;0.40;;;;;;;10.82;66.84;94046.19;5093795;28;20040;-74
2022/09/18 02:47:28;;;;;;;0.55;0.40;;;;;;;10.91;67.03;94066.06;5077083;28;20040;-74
2022/09/18 02:50:09;;;;;;;1.95;0.50;;;;;;;10.82;68.34;94040.97;5093685;28;20031;-74
2022/09/18 02:52:41;;;;;;;;;;;;;;;10.80;68.56;94059.31;5076467;28;20032;-74
2022/09/18 02:55:08;;;;;;;0.70;0.52;;;;;;;10.80;69.05;94076.69;5093638;28;19912;-74
2022/09/18 02:57:39;;;;;;;0.93;0.40;;;;;;;10.67;69.08;94075.25;5092358;28;20036;-73
2022/09/18 03:00:05;;;;;;;0.77;0.55;;;;;;;10.34;69.58;94081.03;5075535;28;20494;-74
2022/09/18 03:02:30;;;;;;;1.90;0.55;;;;;;;10.32;70.57;94101.13;5075407;28;20043;-74
2022/09/18 03:04:56;;;;;;;1.00;0.60;;;;;;;10.26;69.19;94112.84;5075406;28;20027;-74
2022/09/18 03:07:21;;;;;;;0.95;0.70;;;;;;;10.26;68.67;94108.47;5075365;28;20657;-74
2022/09/18 03:09:47;;;;;;;1.13;0.70;;;;;;;10.05;68.85;94113.03;5075157;28;20028;-74
2022/09/18 03:12:14;;;;;;;1.40;0.65;;;;;;;10.23;67.45;94108.75;5092114;28;20513;-74
2022/09/18 03:14:39;;;;;;;0.93;0.70;;;;;;;10.16;67.66;94118.06;5058787;28;20515;-74
2022/09/18 03:17:05;;;;;;;1.00;0.70;;;;;;;10.04;67.01;94108.81;5091918;28;20047;-74
2022/09/18 03:19:30;;;;;;;1.10;0.80;;;;;;;10.20;67.43;94116.03;5093169;28;20032;-74
2022/09/18 03:21:56;;;;;;;1.45;0.80;;;;;;;10.21;66.69;94105.47;5091729;28;20496;-74
2022/09/18 03:24:24;;;;;;;1.23;0.70;;;;;;;10.20;65.97;94114.25;5093102;28;20024;-73
2022/09/18 03:26:50;;;;;;;1.20;0.80;;;;;;;10.14;66.24;94126.94;5091678;28;20119;-74
2022/09/18 03:29:16;;;;;;;1.88;0.90;;;;;;;10.29;66.19;94139.38;5074903;28;20028;-74
2022/09/18 03:31:41;;;;;;;1.20;0.77;;;;;;;10.18;65.77;94121.34;5091662;28;20028;-74
2022/09/18 03:34:07;;;;;;;1.23;0.80;;;;;;;10.24;64.80;94131.16;5074812;28;20470;-74
2022/09/18 03:36:32;;;;;;;1.23;0.82;;;;;;;10.07;66.35;94135.31;5091532;28;20062;-74
2022/09/18 03:38:58;;;;;;;1.30;0.90;;;;;;;10.12;65.49;94126.28;5091354;28;20561;-74
2022/09/18 03:41:23;;;;;;;1.25;0.90;;;;;;;10.09;64.80;94145.56;5091478;28;20065;-74
2022/09/18 03:43:49;;;;;;;1.67;1.00;;;;;;;10.02;65.16;94126.31;5074432;28;20031;-74
2022/09/18 03:46:21;;;;;;;1.00;0.70;;;;;;;9.93;65.13;94125.38;5092609;28;20024;-74
2022/09/18 03:48:46;;;;;;;;;;;;;;;10.05;65.16;94136.41;5092894;28;20040;-74
2022/09/18 03:51:12;;;;;;;2.38;0.90;;;;;;;10.06;65.09;94145.84;5090342;28;19912;-74
2022/09/18 03:53:38;;;;;;;1.85;0.75;;;;;;;10.02;65.19;94153.06;5091111;28;20532;-74
2022/09/18 03:56:04;;;;;;;1.35;0.93;;;;;;;10.00;65.18;94164.53;5091159;28;20111;-74
2022/09/18 03:58:29;;;;;;;2.40;1.10;;;;;;;10.08;64.48;94177.63;5074384;28;20121;-74
2022/09/18 04:00:55;;;;;;;1.25;0.90;;;;;;;9.90;64.09;94172.34;5074247;28;20024;-74
2022/09/18 04:03:21;;;;;;;1.88;1.00;;;;;;;10.08;64.45;94206.19;5074229;28;20032;-74
2022/09/18 04:05:49;;;;;;;1.48;0.98;;;;;;;10.07;64.34;94202.78;5091014;28;20024;-74
2022/09/18 04:08:16;;;;;;;2.28;0.90;;;;;;;10.18;63.37;94209.59;5091205;28;20097;-74
2022/09/18 04:10:41;;;;;;;1.90;1.25;;;;;;;10.17;63.21;94207.97;5090925;28;20111;-74
2022/09/18 04:13:07;;;;;;;1.50;1.10;;;;;;;9.94;63.70;94191.84;5090761;28;20093;-74
2022/09/18 04:15:32;;;;;;;1.75;1.05;;;;;;;10.04;63.29;94216.03;5092086;28;20032;-74
2022/09/18 04:17:58;;;;;;;1.63;1.23;;;;;;;10.13;63.22;94231.72;5090879;28;20032;-74
2022/09/18 04:20:23;;;;;;;1.75;1.40;;;;;;;10.00;63.50;94221.63;5057109;28;20016;-75
2022/09/18 04:22:49;;;;;;;1.75;1.30;;;;;;;10.17;63.89;94241.72;5073819;28;20032;-74
2022/09/18 04:25:15;;;;;;;2.33;1.30;;;;;;;10.13;63.44;94244.72;5073765;28;20028;-74
2022/09/18 04:27:40;;;;;;;1.80;1.10;;;;;;;9.97;63.16;94240.06;5090396;28;20493;-74
2022/09/18 04:30:06;;;;;;;1.63;1.30;;;;;;;10.12;63.88;94256.06;5090611;28;20049;-74
2022/09/18 04:32:32;;;;;;;2.35;1.40;;;;;;;10.16;63.76;94262.59;5073564;28;20047;-74
2022/09/18 04:34:57;;;;;;;2.10;1.50;;;;;;;10.19;63.16;94257.94;5073609;28;20489;-74
2022/09/18 04:37:22;;;;;;;1.90;1.30;;;;;;;10.21;63.70;94269.00;5090341;28;20044;-74
2022/09/18 04:39:48;;;;;;;1.80;1.40;;;;;;;10.25;63.45;94283.38;5073463;28;20028;-74
2022/09/18 04:42:13;;;;;;;2.50;1.58;;;;;;;10.20;62.93;94277.75;5090380;28;20031;-74
2022/09/18 04:44:39;;;;;;;2.00;1.40;;;;;;;10.27;63.53;94281.47;5073486;28;20467;-74
2022/09/18 04:47:05;;;;;;;1.60;1.20;;;;;;;10.34;63.71;94293.91;5056633;28;20110;-74
2022/09/18 04:49:30;;;;;;;2.20;1.60;;;;;;;10.29;63.73;94284.75;5090213;28;20116;-74
2022/09/18 04:51:56;;;;;;;2.08;1.70;;;;;;;10.39;64.04;94299.50;5073501;28;20047;-74
2022/09/18 04:54:21;;;;;;;2.83;1.38;;;;;;;10.41;63.39;94302.78;5090464;28;20470;-74
2022/09/18 04:56:47;;;;;;;2.08;1.60;;;;;;;10.37;64.05;94315.22;5073113;28;20032;-74
2022/09/18 04:59:12;;;;;;;2.05;1.45;;;;;;;10.31;63.46;94312.34;5056521;28;20032;-74
2022/09/18 05:01:38;;;;;;;2.08;1.30;;;;;;;10.33;63.62;94321.63;5072906;28;20114;-74
2022/09/18 05:04:03;;;;;;;4.07;3.08;;;;;;;10.26;64.17;94305.75;5056411;28;20482;-74
2022/09/18 05:06:28;;;;;;;5.90;5.30;;;;;;;10.44;64.02;94336.25;5089813;28;20505;-74
2022/09/18 05:08:54;;;;;;;2.60;2.20;;;;;;;10.47;64.02;94334.22;5089738;28;20081;-74
2022/09/18 05:11:19;;;;;;;1.80;1.35;;;;;;;10.45;63.98;94346.50;5091047;28;20024;-74
2022/09/18 05:13:48;;;;;;;1.90;1.50;;;;;;;10.41;63.98;94344.31;5089942;28;20374;-74
2022/09/18 05:16:13;;;;;;;2.35;1.50;;;;;;;10.60;63.81;94366.88;5089939;28;20031;-74
2022/09/18 05:18:39;;;;;;;2.00;1.30;;;;;;;10.57;63.54;94370.56;5089920;28;20447;-74
2022/09/18 05:21:04;;;;;;;2.40;1.30;;;;;;;10.62;63.52;94378.75;5073221;28;20063;-74
2022/09/18 05:23:32;;;;;;;1.92;1.10;;;;;;;10.59;63.23;94393.81;5073045;28;20036;-74
2022/09/18 05:25:57;;;;;;;2.35;1.88;;;;;;;10.51;63.72;94386.69;5073284;28;20074;-74
2022/09/18 05:28:23;;;;;;;1.60;1.23;;;;;;;10.51;63.67;94399.69;5089784;28;20039;-74
2022/09/18 05:30:49;;;;;;;1.42;1.10;;;;;;;10.45;63.51;94385.47;5072821;28;20024;-74
2022/09/18 05:33:14;;;;;;;3.40;1.42;;;;;;;10.51;63.08;94384.91;5056405;28;20032;-74
2022/09/18 05:35:41;;;;;;;1.80;1.27;;;;;;;10.58;63.20;94398.16;5072913;28;20039;-74
2022/09/18 05:38:06;;;;;;;2.00;1.38;;;;;;;10.55;62.94;94384.63;5072744;28;20051;-74
2022/09/18 05:40:33;;;;;;;1.80;1.02;;;;;;;10.47;62.91;94393.94;5056077;28;20078;-74
2022/09/18 05:42:59;;;;;;;1.63;1.23;;;;;;;10.52;63.05;94396.94;5072993;28;20028;-74
2022/09/18 05:45:25;;;;;;;1.80;1.20;;;;;;;10.34;63.23;94400.38;5072844;28;20031;-74
2022/09/18 05:47:58;;;;;;;2.05;1.27;;;;;;;10.52;62.74;94411.69;5089516;28;20493;-74
2022/09/18 05:50:24;;;;;;;1.77;1.10;;;;;;;10.50;62.14;94427.44;5056011;28;20024;-74
2022/09/18 05:53:00;;;;;;;1.60;0.98;;;;;;;10.25;61.68;94417.50;5072583;28;20032;-74
2022/09/18 05:55:27;;;;;;;3.00;1.40;;;;;;;10.38;61.25;94406.91;5072796;28;20038;-75
2022/09/18 05:57:53;;;;;;;2.05;1.17;;;;;;;10.39;61.25;94411.13;5056397;28;20036;-74
2022/09/18 06:00:19;;;;;;;1.67;1.17;;;;;;;10.27;61.16;94419.06;5072778;28;20023;-74
2022/09/18 06:02:54;;;;;;;1.77;1.20;;;;;;;10.31;61.50;94414.44;5090828;28;20103;-74
2022/09/18 06:05:20;;;;;;;2.40;1.20;;;;;;;10.36;60.56;94406.22;5056686;28;20028;-74
2022/09/18 06:07:46;;;;;;;2.15;1.20;;;;;;;10.42;60.94;94408.28;5072358;28;20032;-74
2022/09/18 06:10:12;;;;;;;3.25;1.95;;;;;;;10.55;61.00;94416.63;5090583;28;20020;-74
2022/09/18 06:12:37;;;;;;;1.83;1.20;;;;;;;10.70;59.90;94417.06;5090737;28;20415;-74
2022/09/18 06:15:03;;;;;;;1.63;1.10;;;;;;;10.67;60.38;94418.13;5092149;28;20031;-74
2022/09/18 06:17:28;;;;;;;1.58;1.10;;;;;;;10.72;59.65;94417.72;5076317;28;20607;-74
2022/09/18 06:19:54;;;;;;;1.98;1.20;;;;;;;10.44;59.82;94421.94;5076132;28;20036;-74
2022/09/18 06:22:20;;;;;;;1.75;1.10;;;;;;;10.36;60.45;94414.00;5076135;28;20036;-74
2022/09/18 06:24:45;;;;;;;1.90;1.40;;;;;;;10.38;60.21;94441.47;5075966;28;20059;-74
2022/09/18 06:27:11;;;;;;;1.50;1.00;;;;;;;10.49;60.44;94437.94;5059211;28;20032;-74
2022/09/18 06:29:36;;;;;;;2.05;1.42;;;;;;;10.48;60.20;94428.53;5076002;28;20494;-74
2022/09/18 06:32:02;;;;;;;2.40;1.05;;;;;;;10.59;60.30;94454.38;5094108;28;20085;-74
2022/09/18 06:34:27;;;;;;;1.85;1.10;;;;;;;10.59;60.22;94467.34;5075962;28;20055;-74
2022/09/18 06:36:52;;;;;;;3.08;1.17;;;;;;;10.49;60.13;94461.31;5058902;28;20040;-74
2022/09/18 06:39:18;;;;;;;2.60;1.60;;;;;;;10.70;59.51;94467.22;5093923;28;20039;-74
2022/09/18 06:41:43;;;;;;;3.72;2.47;;;;;;;10.70;58.97;94469.00;5092469;28;20043;-74
2022/09/18 06:44:09;;;;;;;5.28;2.70;;;;;;;10.77;59.52;94469.28;5092732;28;20484;-74
2022/09/18 06:46:34;;;;;;;4.22;1.70;;;;;;;10.75;59.50;94469.41;5075553;28;20047;-74
2022/09/18 06:49:00;;;;;;;2.15;1.30;;;;;;;10.90;59.32;94481.03;5092794;28;20035;-74
2022/09/18 06:51:25;;;;;;;1.90;1.10;;;;;;;10.96;59.94;94479.66;5092453;28;20024;-74
2022/09/18 06:53:51;;;;;;;2.80;2.05;;;;;;;11.03;60.50;94487.72;5092332;28;20473;-74
2022/09/18 06:56:16;;;;;;;3.67;2.20;;;;;;;11.04;59.10;94484.19;5075532;28;20020;-74
2022/09/18 06:58:41;;;;;;;2.10;1.50;;;;;;;11.06;59.25;94471.84;5075415;28;20036;-74
2022/09/18 07:01:07;;;;;;;2.13;1.30;;;;;;;11.04;60.17;94461.59;5092498;28;20024;-74
2022/09/18 07:03:32;;;;;;;2.15;1.42;;;;;;;11.29;59.60;94503.59;5092314;28;20177;-74
2022/09/18 07:05:58;;;;;;;2.28;1.20;;;;;;;11.30;58.91;94505.22;5075302;28;20020;-75
2022/09/18 07:08:23;;;;;;;1.73;1.08;;;;;;;11.36;59.10;94504.66;5075383;28;20032;-74
2022/09/18 07:10:49;;;;;;;3.63;1.35;;;;;;;11.42;59.03;94504.09;5093338;28;20547;-74
2022/09/18 07:13:14;;;;;;;1.80;1.13;;;;;;;11.36;59.15;94502.06;5092035;28;20451;-74
2022/09/18 07:15:40;;;;;;;3.58;1.20;;;;;;;11.28;58.99;94507.13;5093271;28;20024;-75
2022/09/18 07:18:06;;;;;;;1.33;0.95;;;;;;;11.39;58.83;94507.81;5092031;28;20032;-74
2022/09/18 07:20:32;;;;;;;3.47;1.10;;;;;;;11.43;57.64;94504.94;5058655;28;20074;-74
2022/09/18 07:22:59;;;;;;;2.85;2.20;;;;;;;11.49;57.19;94513.00;5092030;28;20028;-74
2022/09/18 07:25:25;;;;;;;2.75;1.40;;;;;;;11.45;57.63;94479.59;5092899;28;20099;-75
2022/09/18 07:27:51;;;;;;;1.83;1.00;;;;;;;11.46;59.01;94486.44;5074784;28;20062;-74
2022/09/18 07:30:16;;;;;;;3.15;1.02;;;;;;;11.40;57.94;94493.03;5091775;28;20481;-74
2022/09/18 07:32:42;;;;;;;4.05;1.20;;;;;;;11.35;58.07;94506.44;5058151;28;20036;-74
2022/09/18 07:35:08;;;;;;;2.42;1.00;;;;;;;11.51;57.19;94505.06;5058103;28;20032;-74
2022/09/18 07:37:34;;;;;;;1.70;1.08;;;;;;;11.54;56.82;94495.19;5074606;28;20051;-74
2022/09/18 07:39:59;;;;;;;1.90;1.02;;;;;;;11.68;56.09;94500.91;5058237;28;20024;-74
2022/09/18 07:42:25;;;;;;;1.50;0.95;;;;;;;11.66;55.81;94502.81;5074612;28;20059;-74
2022/09/18 07:44:51;;;;;;;3.90;1.27;;;;;;;11.60;55.34;94497.22;5091415;28;20531;-74
2022/09/18 07:47:16;;;;;;;2.13;1.20;;;;;;;11.74;55.65;94495.94;5057630;28;20028;-74
2022/09/18 07:49:42;;;;;;;2.05;1.10;;;;;;;11.74;55.18;94495.13;5074498;28;20051;-74
2022/09/18 07:52:07;;;;;;;1.50;0.95;;;;;;;11.80;55.97;94497.16;5091298;28;20098;-74
2022/09/18 07:54:34;;;;;;;2.00;1.20;;;;;;;11.76;56.47;94499.25;5091534;28;20028;-74
2022/09/18 07:56:59;;;;;;;1.85;1.00;;;;;;;11.90;56.40;94503.19;5074334;28;20501;-74
2022/09/18 07:59:24;;;;;;;1.73;1.10;;;;;;;11.97;55.66;94512.06;5091041;28;20160;-74
2022/09/18 08:01:51;;;;;;;1.60;1.02;;;;;;;11.95;54.21;94487.97;5091142;28;20089;-74
2022/09/18 08:04:17;;;;;;;5.63;1.13;;;;;;;12.10;54.18;94509.16;5090942;28;20077;-74
2022/09/18 08:06:42;;;;;;;1.63;1.10;;;;;;;12.07;53.69;94502.44;5073990;28;20047;-74
2022/09/18 08:09:07;;;;;;;2.03;0.90;;;;;;;12.04;54.21;94470.69;5074028;28;20020;-74
2022/09/18 08:11:33;;;;;;;1.90;1.00;;;;;;;12.23;53.48;94494.03;5092105;28;20040;-74
2022/09/18 08:13:59;;;;;;;2.45;0.95;;;;;;;12.05;52.90;94482.72;5073835;28;20016;-74
2022/09/18 08:16:24;;;;;;;2.33;1.13;;;;;;;12.34;53.20;94506.03;5090808;28;20031;-74
2022/09/18 08:18:50;;;;;;;2.03;1.00;;;;;;;12.34;52.49;94505.19;5091015;28;20027;-74
2022/09/18 08:21:17;;;;;;;1.65;1.02;;;;;;;12.25;53.22;94491.25;5090865;28;20496;-74
2022/09/18 08:23:42;;;;;;;2.35;1.00;;;;;;;12.24;53.17;94492.22;5090547;28;20123;-74
2022/09/18 08:26:08;;;;;;;2.33;1.00;;;;;;;12.14;53.68;94494.88;5090697;28;20039;-74
2022/09/18 08:28:34;;;;;;;2.33;1.20;;;;;;;12.34;53.42;94489.56;5057046;28;20039;-74
2022/09/18 08:30:59;;;;;;;4.10;1.10;;;;;;;12.33;52.74;94474.91;5090825;28;20103;-74
2022/09/18 08:33:25;;;;;;;1.48;1.00;;;;;;;12.22;53.24;94475.91;5073821;28;20032;-74
2022/09/18 08:35:50;;;;;;;2.28;0.90;;;;;;;12.45;53.16;94473.72;5073562;28;20509;-74
2022/09/18 08:38:16;;;;;;;1.40;0.90;;;;;;;12.73;52.57;94484.94;5072912;28;20062;-74
2022/09/18 08:40:41;;;;;;;4.40;1.20;;;;;;;12.84;52.49;94481.28;5090365;28;20093;-74
2022/09/18 08:43:39;;;;;;;4.53;1.35;;;;;;;13.09;51.51;94490.13;5092005;28;20032;-74
2022/09/18 08:46:15;;;;;;;2.00;1.10;;;;;;;13.15;51.43;94489.56;5079251;28;20111;-75
2022/09/18 08:48:44;;;;;;;2.40;1.05;;;;;;;13.38;52.13;94502.97;5091860;28;20068;-74
2022/09/18 08:51:18;;;;;;;1.50;0.82;;;;;;;13.56;50.13;94489.88;5056748;28;20485;-75
2022/09/18 08:53:45;;;;;;;2.03;1.13;;;;;;;13.80;50.47;94497.06;5056541;28;20040;-74
2022/09/18 08:56:14;;;;;;;3.40;1.33;;;;;;;13.96;50.25;94498.94;5073723;28;20025;-75
2022/09/18 08:58:44;;;;;;;1.90;1.00;;;;;;;14.11;50.09;94504.41;5073686;28;20036;-75
2022/09/18 09:01:13;;;;;;;2.05;1.00;;;;;;;14.25;47.12;94504.63;5073492;28;20028;-75
2022/09/18 09:03:54;;;;;;;1.85;1.05;;;;;;;14.42;47.96;94513.34;5073693;28;20110;-75
2022/09/18 09:06:22;;;;;;;2.00;0.98;;;;;;;14.50;47.68;94518.59;5073640;28;20070;-75
2022/09/18 09:09:17;;;;;;;1.85;1.00;;;;;;;14.53;46.40;94514.88;5091066;28;20032;-75
2022/09/18 09:12:07;;;;;;;1.50;0.75;;;;;;;14.63;48.18;94506.94;5079489;28;20168;-76
2022/09/18 09:15:01;;;;;;;2.90;1.10;;;;;;;14.70;47.29;94531.44;5091130;28;20024;-75
2022/09/18 09:17:51;;;;;;;1.73;0.90;;;;;;;14.82;46.57;94514.50;5086105;28;20072;-75
2022/09/18 09:20:23;;;;;;;3.17;1.05;;;;;;;14.78;46.37;94546.34;5089888;28;20099;-75
2022/09/18 09:23:01;;;;;;;1.83;0.90;;;;;;;14.81;47.77;94544.22;5089907;28;20036;-75
2022/09/18 09:25:46;;;;;;;1.70;1.20;;;;;;;14.79;46.94;94553.19;5090984;28;20024;-75
2022/09/18 09:28:18;;;;;;;2.03;0.95;;;;;;;14.81;45.65;94532.94;5091229;28;20425;-75
2022/09/18 09:30:46;;;;;;;3.90;3.53;;;;;;;14.77;46.11;94531.66;5089638;28;20053;-75
2022/09/18 09:33:26;;;;;;;2.75;1.67;;;;;;;14.70;46.17;94537.47;5073163;28;20133;-75
2022/09/18 09:36:01;;;;;;;2.53;1.55;;;;;;;14.68;45.59;94549.06;5057168;28;20436;-75
2022/09/18 09:38:36;;;;;;;3.47;1.40;;;;;;;14.58;45.08;94538.75;5073312;28;20059;-75
2022/09/18 09:41:22;;;;;;;3.10;1.00;;;;;;;14.67;45.79;94537.00;5089869;28;20398;-75
2022/09/18 09:43:57;;;;;;;3.35;1.02;;;;;;;14.57;45.80;94536.28;5089564;28;20046;-75
2022/09/18 09:46:59;;;;;;;1.73;1.10;;;;;;;14.75;47.06;94535.22;5056773;28;20027;-75
2022/09/18 09:49:49;;;;;;;4.38;0.90;;;;;;;14.73;46.57;94544.19;5060456;28;20062;-75
2022/09/18 09:52:24;;;;;;;6.13;1.40;;;;;;;14.68;46.48;94549.91;5093746;28;20028;-75
2022/09/18 09:55:20;;;;;;;2.25;1.50;;;;;;;14.71;46.59;94560.06;5077792;28;20050;-75
2022/09/18 09:58:02;;;;;;;1.80;1.00;;;;;;;14.71;45.89;94560.06;5090067;28;20301;-75
2022/09/18 10:00:30;;;;;;;3.67;0.98;;;;;;;14.61;45.55;94561.16;5093505;28;20116;-75
2022/09/18 10:03:14;;;;;;;1.60;1.13;;;;;;;14.62;45.18;94574.06;5076692;28;20058;-75
2022/09/18 10:05:42;;;;;;;2.63;1.80;;;;;;;14.52;45.41;94574.19;5076437;28;20028;-75
2022/09/18 10:08:26;;;;;;;3.45;2.30;;;;;;;14.66;44.90;94578.00;5094765;28;20046;-75
2022/09/18 10:10:56;;;;;;;4.47;2.50;;;;;;;14.88;45.40;94574.00;5093240;28;20024;-75
2022/09/18 10:13:28;;;;;;;3.20;1.90;;;;;;;14.88;44.34;94570.56;5093319;28;20036;-75
2022/09/18 10:16:24;;;;;;;2.90;2.10;;;;;;;14.93;44.19;94558.66;5076957;28;20588;-75
2022/09/18 10:18:50;;;;;;;3.17;1.88;;;;;;;14.94;43.59;94564.69;5077492;28;20425;-75
2022/09/18 10:21:23;;;;;;;3.00;1.95;;;;;;;14.95;44.54;94569.75;5059496;28;20035;-75
2022/09/18 10:24:14;;;;;;;2.63;1.70;;;;;;;15.08;44.16;94577.16;5076664;28;20035;-75
2022/09/18 10:26:42;;;;;;;2.45;2.03;;;;;;;14.94;45.02;94559.47;5093016;28;20040;-75
2022/09/18 10:29:09;;;;;;;2.85;2.10;;;;;;;15.02;44.32;94576.97;5076111;28;20035;-75
2022/09/18 10:31:58;;;;;;;2.72;2.13;;;;;;;15.02;44.25;94567.34;5092690;28;20028;-75
2022/09/18 10:34:47;;;;;;;8.90;2.88;;;;;;;15.14;45.48;94579.13;5070551;28;20044;-75
2022/09/18 10:37:16;;;;;;;3.20;2.80;;;;;;;15.12;45.27;94581.06;5076356;28;20113;-75
2022/09/18 10:39:52;;;;;;;3.67;2.80;;;;;;;14.93;45.26;94578.72;5092674;28;20119;-75
2022/09/18 10:42:21;;;;;;;4.38;3.53;;;;;;;14.95;45.89;94587.25;5076058;28;20040;-75
2022/09/18 10:44:52;;;;;;;4.32;3.67;;;;;;;14.94;46.48;94580.38;5059012;28;20035;-75
2022/09/18 10:47:37;;;;;;;4.65;3.42;;;;;;;15.05;46.05;94597.59;5092573;28;20035;-76
2022/09/18 10:50:09;;;;;;;4.70;3.25;;;;;;;14.81;44.42;94612.22;5076587;28;20115;-75
2022/09/18 10:52:38;;;;;;;5.05;3.25;;;;;;;14.69;45.28;94629.97;5075976;28;20040;-74
2022/09/18 10:55:06;;;;;;;6.22;4.50;;;;;;;14.67;44.96;94631.91;5092416;28;20032;-74
2022/09/18 10:57:43;;;;;;;4.25;3.85;;;;;;;14.62;45.61;94600.19;5092177;28;20513;-75
2022/09/18 11:00:12;;;;;;;4.68;4.18;;;;;;;14.46;46.31;94597.50;5075640;28;20024;-75
2022/09/18 11:02:43;;;;;;;4.22;3.83;;;;;;;14.61;46.63;94622.09;5093614;28;20085;-75
2022/09/18 11:05:39;;;;;;;6.88;3.95;;;;;;;14.79;46.15;94618.56;5092257;28;20073;-74
2022/09/18 11:08:13;;;;;;;5.25;4.40;;;;;;;14.83;45.51;94609.44;5077628;28;20044;-74
2022/09/18 11:10:39;;;;;;;4.85;4.30;;;;;;;14.96;46.42;94622.91;5075328;28;20107;-75
2022/09/18 11:13:04;;;;;;;7.95;3.88;;;;;;;15.00;45.76;94613.75;5075258;28;20131;-75
2022/09/18 11:15:34;;;;;;;7.82;4.57;;;;;;;15.06;45.74;94620.94;5075167;28;20039;-75
2022/09/18 11:18:03;;;;;;;5.07;3.92;;;;;;;14.75;45.36;94621.50;5058551;28;20032;-75
2022/09/18 11:20:33;;;;;;;4.03;3.63;;;;;;;14.79;45.28;94622.00;5058958;28;20020;-75
2022/09/18 11:23:32;;;;;;;4.23;3.83;;;;;;;14.90;45.50;94607.81;5091854;28;20107;-75
2022/09/18 11:26:18;;;;;;;5.15;3.40;;;;;;;14.58;45.98;94608.53;5072235;28;20040;-74
2022/09/18 11:29:03;;;;;;;4.53;3.80;;;;;;;14.54;46.09;94602.75;5058234;28;20044;-75
2022/09/18 11:31:50;;;;;;;4.60;3.97;;;;;;;14.71;46.62;94620.19;5075767;28;20043;-75
2022/09/18 11:34:24;;;;;;;3.97;3.58;;;;;;;14.42;45.75;94590.94;5074821;28;20035;-75
2022/09/18 11:36:51;;;;;;;5.10;3.55;;;;;;;14.58;46.47;94595.44;5091541;28;20177;-74
2022/09/18 11:39:21;;;;;;;3.90;3.50;;;;;;;14.70;45.22;94605.47;5091605;28;20099;-75
2022/09/18 11:41:47;;;;;;;4.38;3.13;;;;;;;14.66;44.96;94603.34;5074891;28;20054;-75
2022/09/18 11:44:15;;;;;;;5.75;3.42;;;;;;;14.70;45.67;94625.56;5057960;28;20035;-75
2022/09/18 11:47:05;;;;;;;3.33;2.97;;;;;;;14.77;45.45;94623.16;5091352;28;20032;-75
2022/09/18 11:49:37;;;;;;;3.28;2.97;;;;;;;14.77;44.53;94612.69;5091343;28;20024;-75
2022/09/18 11:52:21;;;;;;;3.50;2.90;;;;;;;14.77;45.66;94620.53;5074698;28;20421;-75
2022/09/18 11:55:15;;;;;;;3.13;2.65;;;;;;;14.29;45.69;94623.53;5076789;28;20031;-75
2022/09/18 11:58:14;;;;;;;3.20;2.60;;;;;;;14.56;45.07;94629.56;5089860;28;20068;-75
2022/09/18 12:00:53;;;;;;;2.83;2.47;;;;;;;14.66;44.75;94622.44;5068931;28;20047;-75
2022/09/18 12:03:28;;;;;;;4.55;2.78;;;;;;;14.68;44.65;94632.72;5091287;28;20028;-75